sensor_id;sensor_type;location;lat;lon;timestamp;P1;durP1;ratioP1;P2;durP2;ratioP2
64037;SDS011;54641;50.168;8.492;2022-11-20T00:00:45;33.20;;;15.60;;
64037;SDS011;54641;50.168;8.492;2022-11-20T00:03:15;35.00;;;15.50;;
64037;SDS011;54641;50.168;8.492;2022-11-20T00:05:46;30.10;;;14.50;;
64037;SDS011;54641;50.168;8.492;2022-11-20T00:08:16;29.80;;;14.70;;
64037;SDS011;54641;50.168;8.492;2022-11-20T00:10:46;36.30;;;17.20;;
64037;SDS011;54641;50.168;8.492;2022-11-20T00:13:17;28.80;;;13.30;;
64037;SDS011;54641;50.168;8.492;2022-11-20T00:15:47;29.60;;;14.30;;
64037;SDS011;54641;50.168;8.492;2022-11-20T00:18:19;30.40;;;14.30;;
64037;SDS011;54641;50.168;8.492;2022-11-20T00:20:49;31.60;;;15.50;;
64037;SDS011;54641;50.168;8.492;2022-11-20T00:23:20;31.10;;;14.60;;
64037;SDS011;54641;50.168;8.492;2022-11-20T00:25:50;31.70;;;15.00;;
64037;SDS011;54641;50.168;8.492;2022-11-20T00:28:21;27.90;;;13.50;;
64037;SDS011;54641;50.168;8.492;2022-11-20T00:30:51;30.20;;;14.80;;
64037;SDS011;54641;50.168;8.492;2022-11-20T00:33:23;33.30;;;14.50;;
64037;SDS011;54641;50.168;8.492;2022-11-20T00:35:56;31.40;;;13.80;;
64037;SDS011;54641;50.168;8.492;2022-11-20T00:38:30;31.10;;;14.60;;
64037;SDS011;54641;50.168;8.492;2022-11-20T00:41:01;39.80;;;17.40;;
64037;SDS011;54641;50.168;8.492;2022-11-20T00:43:32;32.70;;;14.90;;
64037;SDS011;54641;50.168;8.492;2022-11-20T00:46:04;26.60;;;12.40;;
64037;SDS011;54641;50.168;8.492;2022-11-20T00:48:35;31.30;;;15.40;;
64037;SDS011;54641;50.168;8.492;2022-11-20T00:51:06;30.40;;;15.30;;
64037;SDS011;54641;50.168;8.492;2022-11-20T00:53:36;33.60;;;16.00;;
64037;SDS011;54641;50.168;8.492;2022-11-20T00:56:09;35.40;;;14.80;;
64037;SDS011;54641;50.168;8.492;2022-11-20T01:01:09;31.30;;;14.50;;
64037;SDS011;54641;50.168;8.492;2022-11-20T01:03:42;26.00;;;13.60;;
64037;SDS011;54641;50.168;8.492;2022-11-20T01:06:14;27.50;;;13.70;;
64037;SDS011;54641;50.168;8.492;2022-11-20T01:08:46;31.10;;;15.60;;
64037;SDS011;54641;50.168;8.492;2022-11-20T01:11:18;30.20;;;14.30;;
64037;SDS011;54641;50.168;8.492;2022-11-20T01:13:50;26.50;;;14.40;;
64037;SDS011;54641;50.168;8.492;2022-11-20T01:16:22;30.30;;;14.30;;
64037;SDS011;54641;50.168;8.492;2022-11-20T01:18:54;42.50;;;16.80;;
64037;SDS011;54641;50.168;8.492;2022-11-20T01:21:25;41.60;;;17.60;;
64037;SDS011;54641;50.168;8.492;2022-11-20T01:23:56;32.80;;;15.90;;
64037;SDS011;54641;50.168;8.492;2022-11-20T01:26:28;30.30;;;14.40;;
64037;SDS011;54641;50.168;8.492;2022-11-20T01:29:00;30.30;;;14.60;;
64037;SDS011;54641;50.168;8.492;2022-11-20T01:31:31;29.30;;;13.90;;
64037;SDS011;54641;50.168;8.492;2022-11-20T01:34:03;31.40;;;16.10;;
64037;SDS011;54641;50.168;8.492;2022-11-20T01:36:38;35.60;;;14.90;;
64037;SDS011;54641;50.168;8.492;2022-11-20T01:39:10;31.10;;;15.30;;
64037;SDS011;54641;50.168;8.492;2022-11-20T01:41:42;34.80;;;15.30;;
64037;SDS011;54641;50.168;8.492;2022-11-20T01:44:53;34.70;;;16.50;;
64037;SDS011;54641;50.168;8.492;2022-11-20T01:47:25;31.10;;;16.10;;
64037;SDS011;54641;50.168;8.492;2022-11-20T01:49:59;34.20;;;16.40;;
64037;SDS011;54641;50.168;8.492;2022-11-20T01:52:34;31.90;;;15.80;;
64037;SDS011;54641;50.168;8.492;2022-11-20T01:55:08;29.50;;;15.10;;
64037;SDS011;54641;50.168;8.492;2022-11-20T01:57:40;32.40;;;16.60;;
64037;SDS011;54641;50.168;8.492;2022-11-20T02:00:12;40.70;;;18.30;;
64037;SDS011;54641;50.168;8.492;2022-11-20T02:02:45;35.40;;;16.70;;
64037;SDS011;54641;50.168;8.492;2022-11-20T02:05:19;32.80;;;16.70;;
64037;SDS011;54641;50.168;8.492;2022-11-20T02:07:54;31.90;;;16.40;;
64037;SDS011;54641;50.168;8.492;2022-11-20T02:10:26;31.90;;;15.40;;
64037;SDS011;54641;50.168;8.492;2022-11-20T02:12:57;30.20;;;14.70;;
64037;SDS011;54641;50.168;8.492;2022-11-20T02:15:45;36.60;;;16.40;;
64037;SDS011;54641;50.168;8.492;2022-11-20T02:18:16;36.10;;;16.90;;
64037;SDS011;54641;50.168;8.492;2022-11-20T02:20:48;32.30;;;15.40;;
64037;SDS011;54641;50.168;8.492;2022-11-20T02:23:22;31.60;;;15.70;;
64037;SDS011;54641;50.168;8.492;2022-11-20T02:25:55;34.80;;;16.20;;
64037;SDS011;54641;50.168;8.492;2022-11-20T02:28:27;31.60;;;14.30;;
64037;SDS011;54641;50.168;8.492;2022-11-20T02:30:57;30.50;;;15.20;;
64037;SDS011;54641;50.168;8.492;2022-11-20T02:33:28;32.80;;;14.30;;
64037;SDS011;54641;50.168;8.492;2022-11-20T02:35:58;37.60;;;17.10;;
64037;SDS011;54641;50.168;8.492;2022-11-20T02:38:29;34.30;;;16.40;;
64037;SDS011;54641;50.168;8.492;2022-11-20T02:40:59;28.60;;;13.60;;
64037;SDS011;54641;50.168;8.492;2022-11-20T02:43:29;28.20;;;13.20;;
64037;SDS011;54641;50.168;8.492;2022-11-20T02:46:00;34.00;;;15.90;;
64037;SDS011;54641;50.168;8.492;2022-11-20T02:48:31;34.40;;;15.20;;
64037;SDS011;54641;50.168;8.492;2022-11-20T02:51:02;36.20;;;16.30;;
64037;SDS011;54641;50.168;8.492;2022-11-20T02:53:32;36.50;;;16.80;;
64037;SDS011;54641;50.168;8.492;2022-11-20T02:56:03;31.40;;;15.70;;
64037;SDS011;54641;50.168;8.492;2022-11-20T02:58:35;26.80;;;13.90;;
64037;SDS011;54641;50.168;8.492;2022-11-20T03:01:05;26.70;;;14.40;;
64037;SDS011;54641;50.168;8.492;2022-11-20T03:03:36;25.90;;;12.60;;
64037;SDS011;54641;50.168;8.492;2022-11-20T03:06:06;28.90;;;13.40;;
64037;SDS011;54641;50.168;8.492;2022-11-20T03:08:37;30.30;;;13.90;;
64037;SDS011;54641;50.168;8.492;2022-11-20T03:11:08;37.30;;;17.30;;
64037;SDS011;54641;50.168;8.492;2022-11-20T03:13:39;33.60;;;16.30;;
64037;SDS011;54641;50.168;8.492;2022-11-20T03:16:11;30.00;;;14.90;;
64037;SDS011;54641;50.168;8.492;2022-11-20T03:18:42;28.40;;;14.20;;
64037;SDS011;54641;50.168;8.492;2022-11-20T03:21:13;29.10;;;13.40;;
64037;SDS011;54641;50.168;8.492;2022-11-20T03:23:44;29.60;;;14.10;;
64037;SDS011;54641;50.168;8.492;2022-11-20T03:26:15;27.80;;;13.40;;
64037;SDS011;54641;50.168;8.492;2022-11-20T03:28:47;31.20;;;15.80;;
64037;SDS011;54641;50.168;8.492;2022-11-20T03:31:19;41.60;;;16.90;;
64037;SDS011;54641;50.168;8.492;2022-11-20T03:33:51;34.00;;;16.70;;
64037;SDS011;54641;50.168;8.492;2022-11-20T03:36:21;29.30;;;14.70;;
64037;SDS011;54641;50.168;8.492;2022-11-20T03:38:53;30.10;;;14.40;;
64037;SDS011;54641;50.168;8.492;2022-11-20T03:41:25;28.60;;;13.90;;
64037;SDS011;54641;50.168;8.492;2022-11-20T03:43:56;25.50;;;12.10;;
64037;SDS011;54641;50.168;8.492;2022-11-20T03:46:28;31.90;;;15.20;;
64037;SDS011;54641;50.168;8.492;2022-11-20T03:48:58;42.10;;;18.60;;
64037;SDS011;54641;50.168;8.492;2022-11-20T03:51:29;48.80;;;20.40;;
64037;SDS011;54641;50.168;8.492;2022-11-20T03:54:01;41.00;;;18.60;;
64037;SDS011;54641;50.168;8.492;2022-11-20T03:56:33;34.90;;;15.60;;
64037;SDS011;54641;50.168;8.492;2022-11-20T03:59:05;30.70;;;15.30;;
64037;SDS011;54641;50.168;8.492;2022-11-20T04:01:35;26.70;;;13.60;;
64037;SDS011;54641;50.168;8.492;2022-11-20T04:04:14;33.00;;;16.40;;
64037;SDS011;54641;50.168;8.492;2022-11-20T04:06:45;39.30;;;18.30;;
64037;SDS011;54641;50.168;8.492;2022-11-20T04:09:18;39.50;;;18.10;;
64037;SDS011;54641;50.168;8.492;2022-11-20T04:14:22;35.80;;;17.70;;
64037;SDS011;54641;50.168;8.492;2022-11-20T04:16:54;33.70;;;16.00;;
64037;SDS011;54641;50.168;8.492;2022-11-20T04:19:26;34.80;;;15.80;;
64037;SDS011;54641;50.168;8.492;2022-11-20T04:21:58;32.00;;;15.60;;
64037;SDS011;54641;50.168;8.492;2022-11-20T04:24:30;28.80;;;13.30;;
64037;SDS011;54641;50.168;8.492;2022-11-20T04:27:03;33.60;;;15.90;;
64037;SDS011;54641;50.168;8.492;2022-11-20T04:29:35;42.60;;;17.80;;
64037;SDS011;54641;50.168;8.492;2022-11-20T04:32:07;42.20;;;18.50;;
64037;SDS011;54641;50.168;8.492;2022-11-20T04:34:40;38.90;;;17.30;;
64037;SDS011;54641;50.168;8.492;2022-11-20T04:37:12;31.30;;;15.10;;
64037;SDS011;54641;50.168;8.492;2022-11-20T04:39:43;28.30;;;15.10;;
64037;SDS011;54641;50.168;8.492;2022-11-20T04:42:15;29.00;;;14.30;;
64037;SDS011;54641;50.168;8.492;2022-11-20T04:44:59;26.70;;;13.80;;
64037;SDS011;54641;50.168;8.492;2022-11-20T04:47:31;32.50;;;16.00;;
64037;SDS011;54641;50.168;8.492;2022-11-20T04:50:04;37.90;;;17.10;;
64037;SDS011;54641;50.168;8.492;2022-11-20T04:52:37;33.40;;;15.60;;
64037;SDS011;54641;50.168;8.492;2022-11-20T04:55:10;30.70;;;16.00;;
64037;SDS011;54641;50.168;8.492;2022-11-20T04:57:43;28.70;;;14.50;;
64037;SDS011;54641;50.168;8.492;2022-11-20T05:07:30;36.30;;;16.20;;
64037;SDS011;54641;50.168;8.492;2022-11-20T05:10:01;35.00;;;16.90;;
64037;SDS011;54641;50.168;8.492;2022-11-20T05:12:32;32.50;;;15.50;;
64037;SDS011;54641;50.168;8.492;2022-11-20T05:15:03;26.40;;;14.10;;
64037;SDS011;54641;50.168;8.492;2022-11-20T05:17:34;26.90;;;13.90;;
64037;SDS011;54641;50.168;8.492;2022-11-20T05:20:05;21.80;;;11.90;;
64037;SDS011;54641;50.168;8.492;2022-11-20T05:22:36;26.70;;;12.90;;
64037;SDS011;54641;50.168;8.492;2022-11-20T05:25:07;32.00;;;15.90;;
64037;SDS011;54641;50.168;8.492;2022-11-20T05:27:38;35.10;;;17.60;;
64037;SDS011;54641;50.168;8.492;2022-11-20T05:30:09;31.00;;;14.90;;
64037;SDS011;54641;50.168;8.492;2022-11-20T05:35:10;29.80;;;15.00;;
64037;SDS011;54641;50.168;8.492;2022-11-20T05:37:40;22.90;;;11.50;;
64037;SDS011;54641;50.168;8.492;2022-11-20T05:40:12;38.00;;;16.40;;
64037;SDS011;54641;50.168;8.492;2022-11-20T05:42:42;38.90;;;18.00;;
64037;SDS011;54641;50.168;8.492;2022-11-20T05:45:13;37.30;;;17.10;;
64037;SDS011;54641;50.168;8.492;2022-11-20T05:47:43;27.10;;;14.40;;
64037;SDS011;54641;50.168;8.492;2022-11-20T05:50:14;28.60;;;15.00;;
64037;SDS011;54641;50.168;8.492;2022-11-20T05:52:45;26.50;;;13.70;;
64037;SDS011;54641;50.168;8.492;2022-11-20T05:55:15;24.70;;;12.80;;
64037;SDS011;54641;50.168;8.492;2022-11-20T05:57:45;34.30;;;16.20;;
64037;SDS011;54641;50.168;8.492;2022-11-20T06:00:16;38.90;;;18.40;;
64037;SDS011;54641;50.168;8.492;2022-11-20T06:02:47;32.40;;;16.10;;
64037;SDS011;54641;50.168;8.492;2022-11-20T06:05:18;31.30;;;15.10;;
64037;SDS011;54641;50.168;8.492;2022-11-20T06:07:48;25.90;;;14.20;;
64037;SDS011;54641;50.168;8.492;2022-11-20T06:10:19;28.60;;;14.30;;
64037;SDS011;54641;50.168;8.492;2022-11-20T06:12:49;34.00;;;15.90;;
64037;SDS011;54641;50.168;8.492;2022-11-20T06:15:19;32.80;;;15.60;;
64037;SDS011;54641;50.168;8.492;2022-11-20T06:17:52;31.00;;;15.10;;
64037;SDS011;54641;50.168;8.492;2022-11-20T06:22:52;27.40;;;13.60;;
64037;SDS011;54641;50.168;8.492;2022-11-20T06:25:23;23.10;;;12.00;;
64037;SDS011;54641;50.168;8.492;2022-11-20T06:27:53;29.30;;;15.00;;
64037;SDS011;54641;50.168;8.492;2022-11-20T06:30:23;34.50;;;16.40;;
64037;SDS011;54641;50.168;8.492;2022-11-20T06:32:54;36.10;;;17.60;;
64037;SDS011;54641;50.168;8.492;2022-11-20T06:35:24;37.10;;;17.30;;
64037;SDS011;54641;50.168;8.492;2022-11-20T06:37:55;28.90;;;14.80;;
64037;SDS011;54641;50.168;8.492;2022-11-20T06:40:25;29.10;;;14.50;;
64037;SDS011;54641;50.168;8.492;2022-11-20T06:42:56;27.90;;;13.80;;
64037;SDS011;54641;50.168;8.492;2022-11-20T06:45:26;27.80;;;14.70;;
64037;SDS011;54641;50.168;8.492;2022-11-20T06:47:58;34.70;;;15.10;;
64037;SDS011;54641;50.168;8.492;2022-11-20T06:50:28;38.50;;;17.50;;
64037;SDS011;54641;50.168;8.492;2022-11-20T06:53:01;38.60;;;15.80;;
64037;SDS011;54641;50.168;8.492;2022-11-20T06:55:31;32.00;;;15.90;;
64037;SDS011;54641;50.168;8.492;2022-11-20T06:58:02;31.00;;;15.20;;
64037;SDS011;54641;50.168;8.492;2022-11-20T07:00:32;32.60;;;15.30;;
64037;SDS011;54641;50.168;8.492;2022-11-20T07:03:04;27.40;;;14.00;;
64037;SDS011;54641;50.168;8.492;2022-11-20T07:05:34;32.50;;;14.80;;
64037;SDS011;54641;50.168;8.492;2022-11-20T07:08:06;34.90;;;16.40;;
64037;SDS011;54641;50.168;8.492;2022-11-20T07:10:36;34.00;;;15.60;;
64037;SDS011;54641;50.168;8.492;2022-11-20T07:13:07;28.20;;;14.70;;
64037;SDS011;54641;50.168;8.492;2022-11-20T07:15:37;29.70;;;13.90;;
64037;SDS011;54641;50.168;8.492;2022-11-20T07:18:08;29.30;;;14.10;;
64037;SDS011;54641;50.168;8.492;2022-11-20T07:20:38;26.20;;;13.40;;
64037;SDS011;54641;50.168;8.492;2022-11-20T07:23:09;28.80;;;12.80;;
64037;SDS011;54641;50.168;8.492;2022-11-20T07:25:39;36.10;;;15.40;;
64037;SDS011;54641;50.168;8.492;2022-11-20T07:28:09;29.80;;;14.30;;
64037;SDS011;54641;50.168;8.492;2022-11-20T07:30:41;30.40;;;14.00;;
64037;SDS011;54641;50.168;8.492;2022-11-20T07:33:11;27.30;;;13.30;;
64037;SDS011;54641;50.168;8.492;2022-11-20T07:35:42;23.30;;;11.30;;
64037;SDS011;54641;50.168;8.492;2022-11-20T07:38:12;23.80;;;11.80;;
64037;SDS011;54641;50.168;8.492;2022-11-20T07:40:51;29.70;;;14.60;;
64037;SDS011;54641;50.168;8.492;2022-11-20T07:44:10;36.90;;;15.10;;
64037;SDS011;54641;50.168;8.492;2022-11-20T07:46:40;30.20;;;14.20;;
64037;SDS011;54641;50.168;8.492;2022-11-20T07:49:10;26.50;;;13.80;;
64037;SDS011;54641;50.168;8.492;2022-11-20T07:51:41;26.30;;;13.10;;
64037;SDS011;54641;50.168;8.492;2022-11-20T07:54:15;23.80;;;11.40;;
64037;SDS011;54641;50.168;8.492;2022-11-20T07:56:46;25.80;;;12.20;;
64037;SDS011;54641;50.168;8.492;2022-11-20T07:59:16;28.50;;;13.00;;
64037;SDS011;54641;50.168;8.492;2022-11-20T08:01:47;31.10;;;13.90;;
64037;SDS011;54641;50.168;8.492;2022-11-20T08:04:18;24.40;;;12.80;;
64037;SDS011;54641;50.168;8.492;2022-11-20T08:06:49;23.00;;;11.80;;
64037;SDS011;54641;50.168;8.492;2022-11-20T08:09:20;23.90;;;12.40;;
64037;SDS011;54641;50.168;8.492;2022-11-20T08:11:51;20.90;;;10.70;;
64037;SDS011;54641;50.168;8.492;2022-11-20T08:14:39;21.40;;;10.40;;
64037;SDS011;54641;50.168;8.492;2022-11-20T08:17:09;23.10;;;10.80;;
64037;SDS011;54641;50.168;8.492;2022-11-20T08:19:40;21.70;;;9.20;;
64037;SDS011;54641;50.168;8.492;2022-11-20T08:22:10;21.20;;;10.40;;
64037;SDS011;54641;50.168;8.492;2022-11-20T08:24:41;20.60;;;10.20;;
64037;SDS011;54641;50.168;8.492;2022-11-20T08:27:11;18.10;;;9.00;;
64037;SDS011;54641;50.168;8.492;2022-11-20T08:29:44;17.10;;;9.20;;
64037;SDS011;54641;50.168;8.492;2022-11-20T08:32:15;20.50;;;9.10;;
64037;SDS011;54641;50.168;8.492;2022-11-20T08:34:45;20.30;;;9.50;;
64037;SDS011;54641;50.168;8.492;2022-11-20T08:37:15;23.50;;;10.10;;
64037;SDS011;54641;50.168;8.492;2022-11-20T08:39:46;20.50;;;9.50;;
64037;SDS011;54641;50.168;8.492;2022-11-20T08:42:16;16.20;;;9.40;;
64037;SDS011;54641;50.168;8.492;2022-11-20T08:44:47;19.50;;;9.80;;
64037;SDS011;54641;50.168;8.492;2022-11-20T08:47:17;18.50;;;9.10;;
64037;SDS011;54641;50.168;8.492;2022-11-20T08:49:47;19.00;;;10.30;;
64037;SDS011;54641;50.168;8.492;2022-11-20T08:52:18;19.00;;;8.90;;
64037;SDS011;54641;50.168;8.492;2022-11-20T08:54:48;20.10;;;10.10;;
64037;SDS011;54641;50.168;8.492;2022-11-20T08:57:18;16.40;;;9.10;;
64037;SDS011;54641;50.168;8.492;2022-11-20T08:59:49;17.10;;;9.30;;
64037;SDS011;54641;50.168;8.492;2022-11-20T09:02:36;18.50;;;10.10;;
64037;SDS011;54641;50.168;8.492;2022-11-20T09:05:06;18.60;;;8.80;;
64037;SDS011;54641;50.168;8.492;2022-11-20T09:07:37;20.00;;;10.60;;
64037;SDS011;54641;50.168;8.492;2022-11-20T09:10:08;18.30;;;10.00;;
64037;SDS011;54641;50.168;8.492;2022-11-20T09:12:55;18.80;;;9.40;;
64037;SDS011;54641;50.168;8.492;2022-11-20T09:15:25;18.10;;;9.70;;
64037;SDS011;54641;50.168;8.492;2022-11-20T09:17:57;18.30;;;10.30;;
64037;SDS011;54641;50.168;8.492;2022-11-20T09:20:29;15.30;;;8.60;;
64037;SDS011;54641;50.168;8.492;2022-11-20T09:22:59;20.00;;;9.60;;
64037;SDS011;54641;50.168;8.492;2022-11-20T09:25:30;17.80;;;9.30;;
64037;SDS011;54641;50.168;8.492;2022-11-20T09:28:00;16.20;;;9.30;;
64037;SDS011;54641;50.168;8.492;2022-11-20T09:30:31;16.60;;;9.00;;
64037;SDS011;54641;50.168;8.492;2022-11-20T09:33:01;15.00;;;8.90;;
64037;SDS011;54641;50.168;8.492;2022-11-20T09:35:34;15.90;;;8.60;;
64037;SDS011;54641;50.168;8.492;2022-11-20T09:38:05;14.80;;;8.40;;
64037;SDS011;54641;50.168;8.492;2022-11-20T09:43:09;12.40;;;6.60;;
64037;SDS011;54641;50.168;8.492;2022-11-20T09:45:50;14.90;;;7.50;;
64037;SDS011;54641;50.168;8.492;2022-11-20T09:51:28;12.40;;;7.30;;
64037;SDS011;54641;50.168;8.492;2022-11-20T09:54:08;15.00;;;8.90;;
64037;SDS011;54641;50.168;8.492;2022-11-20T09:56:46;15.60;;;8.00;;
64037;SDS011;54641;50.168;8.492;2022-11-20T09:59:26;17.10;;;8.30;;
64037;SDS011;54641;50.168;8.492;2022-11-20T10:02:08;15.80;;;8.40;;
64037;SDS011;54641;50.168;8.492;2022-11-20T10:04:47;15.30;;;9.00;;
64037;SDS011;54641;50.168;8.492;2022-11-20T10:07:21;14.80;;;8.50;;
64037;SDS011;54641;50.168;8.492;2022-11-20T10:10:00;12.70;;;7.20;;
64037;SDS011;54641;50.168;8.492;2022-11-20T10:12:33;13.50;;;7.80;;
64037;SDS011;54641;50.168;8.492;2022-11-20T10:15:21;13.00;;;7.30;;
64037;SDS011;54641;50.168;8.492;2022-11-20T10:18:01;15.40;;;8.00;;
64037;SDS011;54641;50.168;8.492;2022-11-20T10:20:40;14.20;;;8.50;;
64037;SDS011;54641;50.168;8.492;2022-11-20T10:26:14;14.50;;;8.00;;
64037;SDS011;54641;50.168;8.492;2022-11-20T10:28:52;17.00;;;8.50;;
64037;SDS011;54641;50.168;8.492;2022-11-20T10:31:36;15.20;;;8.30;;
64037;SDS011;54641;50.168;8.492;2022-11-20T10:34:07;17.20;;;9.00;;
64037;SDS011;54641;50.168;8.492;2022-11-20T10:36:51;19.60;;;10.20;;
64037;SDS011;54641;50.168;8.492;2022-11-20T10:39:24;28.50;;;14.40;;
64037;SDS011;54641;50.168;8.492;2022-11-20T10:42:00;28.90;;;14.00;;
64037;SDS011;54641;50.168;8.492;2022-11-20T10:44:33;25.70;;;13.60;;
64037;SDS011;54641;50.168;8.492;2022-11-20T10:47:24;30.50;;;14.00;;
64037;SDS011;54641;50.168;8.492;2022-11-20T10:49:56;28.30;;;14.30;;
64037;SDS011;54641;50.168;8.492;2022-11-20T10:52:31;31.70;;;14.60;;
64037;SDS011;54641;50.168;8.492;2022-11-20T10:55:08;30.50;;;15.70;;
64037;SDS011;54641;50.168;8.492;2022-11-20T10:57:50;24.50;;;11.90;;
64037;SDS011;54641;50.168;8.492;2022-11-20T11:00:22;33.00;;;15.30;;
64037;SDS011;54641;50.168;8.492;2022-11-20T11:02:53;27.60;;;13.80;;
64037;SDS011;54641;50.168;8.492;2022-11-20T11:05:33;29.30;;;14.10;;
64037;SDS011;54641;50.168;8.492;2022-11-20T11:08:07;28.60;;;13.50;;
64037;SDS011;54641;50.168;8.492;2022-11-20T11:10:45;28.80;;;14.20;;
64037;SDS011;54641;50.168;8.492;2022-11-20T11:13:20;24.90;;;11.20;;
64037;SDS011;54641;50.168;8.492;2022-11-20T11:15:51;24.30;;;11.00;;
64037;SDS011;54641;50.168;8.492;2022-11-20T11:18:25;32.80;;;13.80;;
64037;SDS011;54641;50.168;8.492;2022-11-20T11:20:58;30.10;;;13.90;;
64037;SDS011;54641;50.168;8.492;2022-11-20T11:23:32;30.70;;;14.20;;
64037;SDS011;54641;50.168;8.492;2022-11-20T11:26:04;27.90;;;13.30;;
64037;SDS011;54641;50.168;8.492;2022-11-20T11:28:36;32.20;;;16.00;;
64037;SDS011;54641;50.168;8.492;2022-11-20T11:31:06;29.40;;;15.20;;
64037;SDS011;54641;50.168;8.492;2022-11-20T11:33:37;35.00;;;16.80;;
64037;SDS011;54641;50.168;8.492;2022-11-20T11:36:16;35.00;;;16.00;;
64037;SDS011;54641;50.168;8.492;2022-11-20T11:38:50;35.30;;;17.20;;
64037;SDS011;54641;50.168;8.492;2022-11-20T11:41:22;35.70;;;17.50;;
64037;SDS011;54641;50.168;8.492;2022-11-20T11:43:56;35.40;;;16.00;;
64037;SDS011;54641;50.168;8.492;2022-11-20T11:46:49;35.60;;;16.70;;
64037;SDS011;54641;50.168;8.492;2022-11-20T11:49:21;33.70;;;15.20;;
64037;SDS011;54641;50.168;8.492;2022-11-20T11:51:59;36.70;;;17.30;;
64037;SDS011;54641;50.168;8.492;2022-11-20T11:54:35;37.10;;;18.40;;
64037;SDS011;54641;50.168;8.492;2022-11-20T11:57:09;38.20;;;18.30;;
64037;SDS011;54641;50.168;8.492;2022-11-20T11:59:51;32.80;;;16.40;;
64037;SDS011;54641;50.168;8.492;2022-11-20T12:02:29;27.40;;;14.00;;
64037;SDS011;54641;50.168;8.492;2022-11-20T12:05:08;31.90;;;16.20;;
64037;SDS011;54641;50.168;8.492;2022-11-20T12:07:45;27.20;;;14.40;;
64037;SDS011;54641;50.168;8.492;2022-11-20T12:10:19;26.90;;;14.70;;
64037;SDS011;54641;50.168;8.492;2022-11-20T12:12:54;29.30;;;15.70;;
64037;SDS011;54641;50.168;8.492;2022-11-20T12:15:30;27.20;;;13.60;;
64037;SDS011;54641;50.168;8.492;2022-11-20T12:18:04;24.90;;;13.60;;
64037;SDS011;54641;50.168;8.492;2022-11-20T12:20:39;35.30;;;16.70;;
64037;SDS011;54641;50.168;8.492;2022-11-20T12:23:16;38.80;;;19.00;;
64037;SDS011;54641;50.168;8.492;2022-11-20T12:25:56;46.40;;;21.50;;
64037;SDS011;54641;50.168;8.492;2022-11-20T12:28:32;39.20;;;20.70;;
64037;SDS011;54641;50.168;8.492;2022-11-20T12:31:17;33.10;;;17.00;;
64037;SDS011;54641;50.168;8.492;2022-11-20T12:34:11;31.60;;;16.90;;
64037;SDS011;54641;50.168;8.492;2022-11-20T12:36:47;30.50;;;14.50;;
64037;SDS011;54641;50.168;8.492;2022-11-20T12:39:24;34.00;;;16.40;;
64037;SDS011;54641;50.168;8.492;2022-11-20T12:45:17;33.30;;;16.10;;
64037;SDS011;54641;50.168;8.492;2022-11-20T12:48:06;27.00;;;13.00;;
64037;SDS011;54641;50.168;8.492;2022-11-20T12:50:46;33.20;;;17.00;;
64037;SDS011;54641;50.168;8.492;2022-11-20T12:53:42;38.00;;;19.70;;
64037;SDS011;54641;50.168;8.492;2022-11-20T12:56:20;29.10;;;14.80;;
64037;SDS011;54641;50.168;8.492;2022-11-20T12:58:59;33.80;;;17.50;;
64037;SDS011;54641;50.168;8.492;2022-11-20T13:01:37;35.70;;;17.80;;
64037;SDS011;54641;50.168;8.492;2022-11-20T13:04:23;30.30;;;15.80;;
64037;SDS011;54641;50.168;8.492;2022-11-20T13:07:01;37.30;;;18.90;;
64037;SDS011;54641;50.168;8.492;2022-11-20T13:09:34;34.90;;;18.20;;
64037;SDS011;54641;50.168;8.492;2022-11-20T13:12:10;34.90;;;18.10;;
64037;SDS011;54641;50.168;8.492;2022-11-20T13:14:44;39.30;;;18.30;;
64037;SDS011;54641;50.168;8.492;2022-11-20T13:17:19;36.70;;;18.40;;
64037;SDS011;54641;50.168;8.492;2022-11-20T13:19:53;37.70;;;19.40;;
64037;SDS011;54641;50.168;8.492;2022-11-20T13:24:55;36.70;;;16.00;;
64037;SDS011;54641;50.168;8.492;2022-11-20T13:27:26;34.40;;;17.70;;
64037;SDS011;54641;50.168;8.492;2022-11-20T13:30:13;34.80;;;17.90;;
64037;SDS011;54641;50.168;8.492;2022-11-20T13:32:49;32.20;;;18.10;;
64037;SDS011;54641;50.168;8.492;2022-11-20T13:35:29;32.60;;;17.20;;
64037;SDS011;54641;50.168;8.492;2022-11-20T13:38:02;35.00;;;17.90;;
64037;SDS011;54641;50.168;8.492;2022-11-20T13:40:38;34.30;;;18.60;;
64037;SDS011;54641;50.168;8.492;2022-11-20T13:43:21;38.50;;;19.00;;
64037;SDS011;54641;50.168;8.492;2022-11-20T13:45:57;40.50;;;20.50;;
64037;SDS011;54641;50.168;8.492;2022-11-20T13:48:32;38.50;;;17.80;;
64037;SDS011;54641;50.168;8.492;2022-11-20T13:51:14;35.20;;;18.50;;
64037;SDS011;54641;50.168;8.492;2022-11-20T13:54:10;36.80;;;19.90;;
64037;SDS011;54641;50.168;8.492;2022-11-20T13:56:50;30.80;;;15.60;;
64037;SDS011;54641;50.168;8.492;2022-11-20T13:59:31;39.30;;;17.90;;
64037;SDS011;54641;50.168;8.492;2022-11-20T14:02:11;37.40;;;19.00;;
64037;SDS011;54641;50.168;8.492;2022-11-20T14:04:44;40.20;;;19.70;;
64037;SDS011;54641;50.168;8.492;2022-11-20T14:07:17;38.50;;;19.70;;
64037;SDS011;54641;50.168;8.492;2022-11-20T14:09:52;39.80;;;20.60;;
64037;SDS011;54641;50.168;8.492;2022-11-20T14:12:27;39.60;;;20.30;;
64037;SDS011;54641;50.168;8.492;2022-11-20T14:14:59;36.20;;;17.10;;
64037;SDS011;54641;50.168;8.492;2022-11-20T14:17:31;39.10;;;21.20;;
64037;SDS011;54641;50.168;8.492;2022-11-20T14:22:33;37.40;;;20.30;;
64037;SDS011;54641;50.168;8.492;2022-11-20T14:25:05;44.60;;;22.30;;
64037;SDS011;54641;50.168;8.492;2022-11-20T14:27:50;36.70;;;18.50;;
64037;SDS011;54641;50.168;8.492;2022-11-20T14:30:22;42.20;;;20.00;;
64037;SDS011;54641;50.168;8.492;2022-11-20T14:32:54;33.60;;;15.70;;
64037;SDS011;54641;50.168;8.492;2022-11-20T14:35:29;46.40;;;21.70;;
64037;SDS011;54641;50.168;8.492;2022-11-20T14:38:04;39.00;;;20.70;;
64037;SDS011;54641;50.168;8.492;2022-11-20T14:40:40;42.40;;;22.00;;
64037;SDS011;54641;50.168;8.492;2022-11-20T14:43:19;45.90;;;22.00;;
64037;SDS011;54641;50.168;8.492;2022-11-20T14:45:54;40.00;;;19.40;;
64037;SDS011;54641;50.168;8.492;2022-11-20T14:48:28;37.10;;;18.20;;
64037;SDS011;54641;50.168;8.492;2022-11-20T14:51:00;46.30;;;20.80;;
64037;SDS011;54641;50.168;8.492;2022-11-20T14:53:30;45.60;;;22.30;;
64037;SDS011;54641;50.168;8.492;2022-11-20T14:56:01;44.30;;;22.70;;
64037;SDS011;54641;50.168;8.492;2022-11-20T14:58:33;40.40;;;20.30;;
64037;SDS011;54641;50.168;8.492;2022-11-20T15:01:04;39.70;;;19.50;;
64037;SDS011;54641;50.168;8.492;2022-11-20T15:03:38;43.70;;;22.00;;
64037;SDS011;54641;50.168;8.492;2022-11-20T15:06:11;41.60;;;19.80;;
64037;SDS011;54641;50.168;8.492;2022-11-20T15:08:51;39.90;;;20.50;;
64037;SDS011;54641;50.168;8.492;2022-11-20T15:11:25;39.90;;;20.10;;
64037;SDS011;54641;50.168;8.492;2022-11-20T15:14:02;40.10;;;20.70;;
64037;SDS011;54641;50.168;8.492;2022-11-20T15:16:37;36.00;;;18.00;;
64037;SDS011;54641;50.168;8.492;2022-11-20T15:19:09;43.90;;;21.10;;
64037;SDS011;54641;50.168;8.492;2022-11-20T15:21:47;40.30;;;18.70;;
64037;SDS011;54641;50.168;8.492;2022-11-20T15:24:20;43.20;;;20.40;;
64037;SDS011;54641;50.168;8.492;2022-11-20T15:26:53;43.80;;;19.90;;
64037;SDS011;54641;50.168;8.492;2022-11-20T15:31:56;36.60;;;16.70;;
64037;SDS011;54641;50.168;8.492;2022-11-20T15:34:29;40.50;;;19.40;;
64037;SDS011;54641;50.168;8.492;2022-11-20T15:37:00;40.70;;;20.00;;